Погода Бадамна 2 недели

Южно-Казахстанская область, Казахстан

22 июля-03 августа
  • 22июля
    Сегодня
    +21°
    +37°
    Ясно и безоблачно
    ВремяПогодаТемператураВлажностьДавлениеВетер, м/сВероятность осадков
    02:00Ясно и безоблачно+24°C39 %727 мм3.6 м/с2 %
    05:00Ясно и безоблачно+21°C48 %727 мм2.3 м/с2 %
    08:00Ясно и безоблачно+27°C46 %728 мм0.7 м/с2 %
    11:00Ясно и безоблачно+33°C28 %728 мм1.6 м/с2 %
    14:00Ясно и безоблачно+36°C20 %727 мм1.7 м/с2 %
    17:00Небольшая облачность+35°C21 %726 мм1.6 м/с2 %
    20:00Ясно и безоблачно+29°C29 %726 мм2.1 м/с2 %
    23:00Ясно и безоблачно+25°C38 %725 мм2.0 м/с2 %
  • 23июля
    Вторник
    +20°
    +37°
    Ясно и безоблачно
    ВремяПогодаТемператураВлажностьДавлениеВетер, м/сВероятность осадков
    02:00Практически безоблачно+22°C52 %725 мм1.9 м/с2 %
    05:00Практически безоблачно+22°C50 %725 мм2.3 м/с2 %
    08:00Небольшая облачность+27°C49 %726 мм2.2 м/с2 %
    11:00Ясно и безоблачно+33°C22 %726 мм2.1 м/с2 %
    14:00Ясно и безоблачно+37°C17 %725 мм2.5 м/с2 %
    17:00Ясно и безоблачно+36°C20 %724 мм1.6 м/с2 %
    20:00Ясно и безоблачно+31°C26 %724 мм1.7 м/с2 %
    23:00Ясно и безоблачно+26°C37 %724 мм2.7 м/с2 %
  • 24июля
    Среда
    +22°
    +38°
    Ясно и безоблачно
    ВремяПогодаТемператураВлажностьДавлениеВетер, м/сВероятность осадков
    02:00Ясно и безоблачно+24°C42 %724 мм2.7 м/с2 %
    05:00Ясно и безоблачно+22°C47 %724 мм2.3 м/с2 %
    08:00Ясно и безоблачно+28°C45 %724 мм2.3 м/с2 %
    11:00Ясно и безоблачно+35°C23 %724 мм2.1 м/с2 %
    14:00Ясно и безоблачно+38°C17 %723 мм1.7 м/с2 %
    17:00Ясно и безоблачно+38°C20 %723 мм1.4 м/с2 %
    20:00Ясно и безоблачно+31°C29 %722 мм0.9 м/с2 %
    23:00Ясно и безоблачно+25°C42 %722 мм1.9 м/с2 %
  • 25июля
    Четверг
    +23°
    +39°
    Ясно и безоблачно
    ВремяПогодаТемператураВлажностьДавлениеВетер, м/сВероятность осадков
    02:00Ясно и безоблачно+24°C47 %722 мм2.0 м/с2 %
    05:00Ясно и безоблачно+23°C46 %722 мм2.5 м/с2 %
    08:00Ясно и безоблачно+29°C38 %723 мм2.0 м/с2 %
    11:00Ясно и безоблачно+37°C19 %724 мм2.8 м/с2 %
    14:00Ясно и безоблачно+38°C16 %723 мм2.9 м/с2 %
    17:00Ясно и безоблачно+38°C16 %724 мм2.5 м/с2 %
    20:00Ясно и безоблачно+30°C28 %723 мм1.9 м/с2 %
    23:00Ясно и безоблачно+28°C30 %723 мм3.1 м/с2 %
Мы используем cookies
Соглашаюсь